sensor_id;sensor_type;location;lat;lon;timestamp;temperature;humidity
27803;DHT22;15182;48.174;11.562;2023-09-12T00:02:09;27.40;82.50
27803;DHT22;15182;48.174;11.562;2023-09-12T00:04:37;27.40;82.60
27803;DHT22;15182;48.174;11.562;2023-09-12T00:07:06;27.40;82.70
27803;DHT22;15182;48.174;11.562;2023-09-12T00:09:34;27.30;82.70
27803;DHT22;15182;48.174;11.562;2023-09-12T00:12:02;27.30;82.80
27803;DHT22;15182;48.174;11.562;2023-09-12T00:14:30;27.30;82.90
27803;DHT22;15182;48.174;11.562;2023-09-12T00:16:58;27.20;83.70
27803;DHT22;15182;48.174;11.562;2023-09-12T00:19:26;27.20;83.80
27803;DHT22;15182;48.174;11.562;2023-09-12T00:21:53;27.20;83.00
27803;DHT22;15182;48.174;11.562;2023-09-12T00:24:23;27.10;83.80
27803;DHT22;15182;48.174;11.562;2023-09-12T00:26:50;27.10;83.20
27803;DHT22;15182;48.174;11.562;2023-09-12T00:29:18;27.10;83.10
27803;DHT22;15182;48.174;11.562;2023-09-12T00:31:46;27.00;83.30
27803;DHT22;15182;48.174;11.562;2023-09-12T00:34:16;27.00;83.30
27803;DHT22;15182;48.174;11.562;2023-09-12T00:36:44;27.00;84.40
27803;DHT22;15182;48.174;11.562;2023-09-12T00:39:12;26.90;83.40
27803;DHT22;15182;48.174;11.562;2023-09-12T00:41:41;26.90;83.60
27803;DHT22;15182;48.174;11.562;2023-09-12T00:44:10;26.90;83.80
27803;DHT22;15182;48.174;11.562;2023-09-12T00:46:38;26.90;83.90
27803;DHT22;15182;48.174;11.562;2023-09-12T00:49:08;26.90;83.80
27803;DHT22;15182;48.174;11.562;2023-09-12T00:51:36;26.80;83.70
27803;DHT22;15182;48.174;11.562;2023-09-12T00:54:05;26.80;83.70
27803;DHT22;15182;48.174;11.562;2023-09-12T00:56:34;26.80;83.80
27803;DHT22;15182;48.174;11.562;2023-09-12T00:59:04;26.80;83.70
27803;DHT22;15182;48.174;11.562;2023-09-12T01:01:32;26.80;83.80
27803;DHT22;15182;48.174;11.562;2023-09-12T01:04:01;26.80;83.70
27803;DHT22;15182;48.174;11.562;2023-09-12T01:06:32;26.70;83.60
27803;DHT22;15182;48.174;11.562;2023-09-12T01:09:01;26.80;83.80
27803;DHT22;15182;48.174;11.562;2023-09-12T01:11:29;26.70;83.60
27803;DHT22;15182;48.174;11.562;2023-09-12T01:13:57;26.70;83.70
27803;DHT22;15182;48.174;11.562;2023-09-12T01:16:26;26.60;83.60
27803;DHT22;15182;48.174;11.562;2023-09-12T01:18:54;26.60;83.70
27803;DHT22;15182;48.174;11.562;2023-09-12T01:21:43;26.60;83.70
27803;DHT22;15182;48.174;11.562;2023-09-12T01:25:02;26.60;84.10
27803;DHT22;15182;48.174;11.562;2023-09-12T01:27:39;26.50;83.90
27803;DHT22;15182;48.174;11.562;2023-09-12T01:30:10;26.50;83.90
27803;DHT22;15182;48.174;11.562;2023-09-12T01:32:39;26.50;84.00
27803;DHT22;15182;48.174;11.562;2023-09-12T01:35:08;26.40;83.90
27803;DHT22;15182;48.174;11.562;2023-09-12T01:37:35;26.40;84.10
27803;DHT22;15182;48.174;11.562;2023-09-12T01:40:04;26.40;84.10
27803;DHT22;15182;48.174;11.562;2023-09-12T01:42:41;26.40;84.10
27803;DHT22;15182;48.174;11.562;2023-09-12T01:45:12;26.40;84.30
27803;DHT22;15182;48.174;11.562;2023-09-12T01:47:41;26.30;84.10
27803;DHT22;15182;48.174;11.562;2023-09-12T01:50:10;26.30;84.30
27803;DHT22;15182;48.174;11.562;2023-09-12T01:52:40;26.30;84.40
27803;DHT22;15182;48.174;11.562;2023-09-12T01:55:08;26.20;84.50
27803;DHT22;15182;48.174;11.562;2023-09-12T01:57:38;26.20;84.50
27803;DHT22;15182;48.174;11.562;2023-09-12T02:00:07;26.20;84.60
27803;DHT22;15182;48.174;11.562;2023-09-12T02:02:35;26.10;84.70
27803;DHT22;15182;48.174;11.562;2023-09-12T02:05:08;26.10;84.80
27803;DHT22;15182;48.174;11.562;2023-09-12T02:07:39;26.10;84.90
27803;DHT22;15182;48.174;11.562;2023-09-12T02:10:08;26.00;85.70
27803;DHT22;15182;48.174;11.562;2023-09-12T02:12:38;26.00;84.90
27803;DHT22;15182;48.174;11.562;2023-09-12T02:15:07;26.00;85.10
27803;DHT22;15182;48.174;11.562;2023-09-12T02:17:36;26.00;85.20
27803;DHT22;15182;48.174;11.562;2023-09-12T02:20:06;26.00;85.20
27803;DHT22;15182;48.174;11.562;2023-09-12T02:22:35;25.90;85.30
27803;DHT22;15182;48.174;11.562;2023-09-12T02:25:03;25.90;85.30
27803;DHT22;15182;48.174;11.562;2023-09-12T02:27:34;25.90;85.50
27803;DHT22;15182;48.174;11.562;2023-09-12T02:30:05;25.90;85.40
27803;DHT22;15182;48.174;11.562;2023-09-12T02:32:33;25.90;85.60
27803;DHT22;15182;48.174;11.562;2023-09-12T02:35:01;25.90;85.60
27803;DHT22;15182;48.174;11.562;2023-09-12T02:37:29;25.90;85.50
27803;DHT22;15182;48.174;11.562;2023-09-12T02:39:57;25.90;85.60
27803;DHT22;15182;48.174;11.562;2023-09-12T02:42:25;25.80;85.50
27803;DHT22;15182;48.174;11.562;2023-09-12T02:44:52;25.90;85.50
27803;DHT22;15182;48.174;11.562;2023-09-12T02:47:22;25.80;85.50
27803;DHT22;15182;48.174;11.562;2023-09-12T02:49:50;25.80;85.60
27803;DHT22;15182;48.174;11.562;2023-09-12T02:52:18;25.90;85.70
27803;DHT22;15182;48.174;11.562;2023-09-12T02:54:45;25.80;85.80
27803;DHT22;15182;48.174;11.562;2023-09-12T02:57:13;25.80;85.90
27803;DHT22;15182;48.174;11.562;2023-09-12T02:59:41;25.70;85.80
27803;DHT22;15182;48.174;11.562;2023-09-12T03:02:09;25.70;86.00
27803;DHT22;15182;48.174;11.562;2023-09-12T03:04:38;25.70;86.10
27803;DHT22;15182;48.174;11.562;2023-09-12T03:07:06;25.70;86.20
27803;DHT22;15182;48.174;11.562;2023-09-12T03:09:34;25.70;86.20
27803;DHT22;15182;48.174;11.562;2023-09-12T03:12:04;25.70;86.30
27803;DHT22;15182;48.174;11.562;2023-09-12T03:14:32;25.70;86.40
27803;DHT22;15182;48.174;11.562;2023-09-12T03:17:00;25.60;86.30
27803;DHT22;15182;48.174;11.562;2023-09-12T03:19:30;25.60;86.30
27803;DHT22;15182;48.174;11.562;2023-09-12T03:21:59;25.50;86.30
27803;DHT22;15182;48.174;11.562;2023-09-12T03:24:27;25.60;86.40
27803;DHT22;15182;48.174;11.562;2023-09-12T03:26:55;25.50;86.30
27803;DHT22;15182;48.174;11.562;2023-09-12T03:29:23;25.50;86.30
27803;DHT22;15182;48.174;11.562;2023-09-12T03:31:51;25.40;86.20
27803;DHT22;15182;48.174;11.562;2023-09-12T03:34:18;25.40;86.10
27803;DHT22;15182;48.174;11.562;2023-09-12T03:36:46;25.40;86.20
27803;DHT22;15182;48.174;11.562;2023-09-12T03:39:15;25.40;86.20
27803;DHT22;15182;48.174;11.562;2023-09-12T03:41:43;25.40;86.20
27803;DHT22;15182;48.174;11.562;2023-09-12T03:44:11;25.30;85.90
27803;DHT22;15182;48.174;11.562;2023-09-12T03:46:39;25.30;85.90
27803;DHT22;15182;48.174;11.562;2023-09-12T03:49:07;25.30;85.90
27803;DHT22;15182;48.174;11.562;2023-09-12T03:51:35;25.30;85.90
27803;DHT22;15182;48.174;11.562;2023-09-12T03:54:04;25.20;85.90
27803;DHT22;15182;48.174;11.562;2023-09-12T03:56:34;25.30;86.00
27803;DHT22;15182;48.174;11.562;2023-09-12T03:59:02;25.20;86.00
27803;DHT22;15182;48.174;11.562;2023-09-12T04:01:29;25.20;86.00
27803;DHT22;15182;48.174;11.562;2023-09-12T04:03:58;25.20;86.10
27803;DHT22;15182;48.174;11.562;2023-09-12T04:06:25;25.20;86.10
27803;DHT22;15182;48.174;11.562;2023-09-12T04:08:53;25.10;86.20
27803;DHT22;15182;48.174;11.562;2023-09-12T04:11:21;25.10;86.20
27803;DHT22;15182;48.174;11.562;2023-09-12T04:13:50;25.10;86.30
27803;DHT22;15182;48.174;11.562;2023-09-12T04:16:18;25.10;86.40
27803;DHT22;15182;48.174;11.562;2023-09-12T04:18:46;25.00;86.40
27803;DHT22;15182;48.174;11.562;2023-09-12T04:21:14;25.00;87.30
27803;DHT22;15182;48.174;11.562;2023-09-12T04:23:41;25.00;86.50
27803;DHT22;15182;48.174;11.562;2023-09-12T04:26:09;25.00;86.50
27803;DHT22;15182;48.174;11.562;2023-09-12T04:28:37;25.00;86.50
27803;DHT22;15182;48.174;11.562;2023-09-12T04:31:06;25.00;86.60
27803;DHT22;15182;48.174;11.562;2023-09-12T04:33:34;25.00;86.70
27803;DHT22;15182;48.174;11.562;2023-09-12T04:36:03;25.00;86.70
27803;DHT22;15182;48.174;11.562;2023-09-12T04:38:31;24.90;86.70
27803;DHT22;15182;48.174;11.562;2023-09-12T04:41:02;24.90;86.70
27803;DHT22;15182;48.174;11.562;2023-09-12T04:43:31;24.90;86.90
27803;DHT22;15182;48.174;11.562;2023-09-12T04:46:00;24.90;86.90
27803;DHT22;15182;48.174;11.562;2023-09-12T04:48:29;24.80;87.00
27803;DHT22;15182;48.174;11.562;2023-09-12T04:50:56;24.80;87.10
27803;DHT22;15182;48.174;11.562;2023-09-12T04:53:24;24.80;87.00
27803;DHT22;15182;48.174;11.562;2023-09-12T04:55:52;24.80;87.10
27803;DHT22;15182;48.174;11.562;2023-09-12T04:58:21;24.80;87.00
27803;DHT22;15182;48.174;11.562;2023-09-12T05:00:48;24.80;87.10
27803;DHT22;15182;48.174;11.562;2023-09-12T05:03:16;24.80;87.00
27803;DHT22;15182;48.174;11.562;2023-09-12T05:05:47;24.80;87.10
27803;DHT22;15182;48.174;11.562;2023-09-12T05:08:15;24.80;87.30
27803;DHT22;15182;48.174;11.562;2023-09-12T05:10:44;24.80;87.20
27803;DHT22;15182;48.174;11.562;2023-09-12T05:13:12;24.70;87.30
27803;DHT22;15182;48.174;11.562;2023-09-12T05:15:41;24.70;87.40
27803;DHT22;15182;48.174;11.562;2023-09-12T05:18:09;24.70;87.50
27803;DHT22;15182;48.174;11.562;2023-09-12T05:20:37;24.70;87.60
27803;DHT22;15182;48.174;11.562;2023-09-12T05:23:06;24.70;87.40
27803;DHT22;15182;48.174;11.562;2023-09-12T05:25:34;24.70;87.50
27803;DHT22;15182;48.174;11.562;2023-09-12T05:28:02;24.70;87.60
27803;DHT22;15182;48.174;11.562;2023-09-12T05:30:31;24.70;87.70
27803;DHT22;15182;48.174;11.562;2023-09-12T05:32:59;24.70;87.80
27803;DHT22;15182;48.174;11.562;2023-09-12T05:35:27;24.70;87.80
27803;DHT22;15182;48.174;11.562;2023-09-12T05:37:55;24.70;87.90
27803;DHT22;15182;48.174;11.562;2023-09-12T05:40:24;24.70;88.00
27803;DHT22;15182;48.174;11.562;2023-09-12T05:42:52;24.70;88.10
27803;DHT22;15182;48.174;11.562;2023-09-12T05:45:20;24.70;88.10
27803;DHT22;15182;48.174;11.562;2023-09-12T05:47:48;24.70;88.20
27803;DHT22;15182;48.174;11.562;2023-09-12T05:50:16;24.70;88.20
27803;DHT22;15182;48.174;11.562;2023-09-12T05:52:44;24.70;88.20
27803;DHT22;15182;48.174;11.562;2023-09-12T05:55:27;24.70;88.20
27803;DHT22;15182;48.174;11.562;2023-09-12T05:58:02;24.70;88.40
27803;DHT22;15182;48.174;11.562;2023-09-12T06:00:32;24.70;88.20
27803;DHT22;15182;48.174;11.562;2023-09-12T06:03:00;24.80;88.40
27803;DHT22;15182;48.174;11.562;2023-09-12T06:05:28;24.80;88.40
27803;DHT22;15182;48.174;11.562;2023-09-12T06:07:56;24.80;88.50
27803;DHT22;15182;48.174;11.562;2023-09-12T06:10:25;24.80;88.50
27803;DHT22;15182;48.174;11.562;2023-09-12T06:12:53;24.80;88.50
27803;DHT22;15182;48.174;11.562;2023-09-12T06:15:20;24.90;88.50
27803;DHT22;15182;48.174;11.562;2023-09-12T06:17:48;24.90;88.50
27803;DHT22;15182;48.174;11.562;2023-09-12T06:20:16;24.90;88.40
27803;DHT22;15182;48.174;11.562;2023-09-12T06:22:44;25.00;88.40
27803;DHT22;15182;48.174;11.562;2023-09-12T06:25:12;25.00;88.30
27803;DHT22;15182;48.174;11.562;2023-09-12T06:27:41;25.00;88.30
27803;DHT22;15182;48.174;11.562;2023-09-12T06:30:09;25.00;89.20
27803;DHT22;15182;48.174;11.562;2023-09-12T06:32:38;25.10;88.40
27803;DHT22;15182;48.174;11.562;2023-09-12T06:35:07;25.10;88.50
27803;DHT22;15182;48.174;11.562;2023-09-12T06:37:37;25.10;88.50
27803;DHT22;15182;48.174;11.562;2023-09-12T06:40:06;25.20;88.30
27803;DHT22;15182;48.174;11.562;2023-09-12T06:42:34;25.20;88.30
27803;DHT22;15182;48.174;11.562;2023-09-12T06:45:04;25.20;88.30
27803;DHT22;15182;48.174;11.562;2023-09-12T06:47:33;25.20;88.30
27803;DHT22;15182;48.174;11.562;2023-09-12T06:50:02;25.30;89.00
27803;DHT22;15182;48.174;11.562;2023-09-12T06:52:29;25.30;88.20
27803;DHT22;15182;48.174;11.562;2023-09-12T06:54:57;25.30;88.10
27803;DHT22;15182;48.174;11.562;2023-09-12T06:57:25;25.40;88.10
27803;DHT22;15182;48.174;11.562;2023-09-12T06:59:53;25.40;89.00
27803;DHT22;15182;48.174;11.562;2023-09-12T07:02:22;25.40;88.00
27803;DHT22;15182;48.174;11.562;2023-09-12T07:04:50;25.40;87.80
27803;DHT22;15182;48.174;11.562;2023-09-12T07:07:17;25.40;87.60
27803;DHT22;15182;48.174;11.562;2023-09-12T07:09:46;25.40;87.60
27803;DHT22;15182;48.174;11.562;2023-09-12T07:12:14;25.50;87.60
27803;DHT22;15182;48.174;11.562;2023-09-12T07:14:42;25.50;87.40
27803;DHT22;15182;48.174;11.562;2023-09-12T07:17:10;25.50;87.40
27803;DHT22;15182;48.174;11.562;2023-09-12T07:19:39;25.60;87.40
27803;DHT22;15182;48.174;11.562;2023-09-12T07:22:07;25.70;87.60
27803;DHT22;15182;48.174;11.562;2023-09-12T07:24:34;25.70;87.60
27803;DHT22;15182;48.174;11.562;2023-09-12T07:27:03;25.80;87.40
27803;DHT22;15182;48.174;11.562;2023-09-12T07:29:31;25.90;87.60
27803;DHT22;15182;48.174;11.562;2023-09-12T07:31:58;26.00;88.20
27803;DHT22;15182;48.174;11.562;2023-09-12T07:34:26;26.10;88.10
27803;DHT22;15182;48.174;11.562;2023-09-12T07:36:55;26.30;87.40
27803;DHT22;15182;48.174;11.562;2023-09-12T07:39:23;26.40;87.80
27803;DHT22;15182;48.174;11.562;2023-09-12T07:41:51;26.50;87.10
27803;DHT22;15182;48.174;11.562;2023-09-12T07:44:19;26.60;86.90
27803;DHT22;15182;48.174;11.562;2023-09-12T07:46:47;26.70;86.60
27803;DHT22;15182;48.174;11.562;2023-09-12T07:49:15;26.80;86.50
27803;DHT22;15182;48.174;11.562;2023-09-12T07:51:42;26.90;86.20
27803;DHT22;15182;48.174;11.562;2023-09-12T07:54:11;27.00;86.20
27803;DHT22;15182;48.174;11.562;2023-09-12T07:56:39;27.10;85.40
27803;DHT22;15182;48.174;11.562;2023-09-12T07:59:07;27.20;85.20
27803;DHT22;15182;48.174;11.562;2023-09-12T08:01:36;27.30;85.00
27803;DHT22;15182;48.174;11.562;2023-09-12T08:04:05;27.40;84.60
27803;DHT22;15182;48.174;11.562;2023-09-12T08:06:33;27.40;84.60
27803;DHT22;15182;48.174;11.562;2023-09-12T08:09:00;27.50;85.30
27803;DHT22;15182;48.174;11.562;2023-09-12T08:11:30;27.50;85.10
27803;DHT22;15182;48.174;11.562;2023-09-12T08:13:58;27.60;85.80
27803;DHT22;15182;48.174;11.562;2023-09-12T08:16:26;27.70;85.00
27803;DHT22;15182;48.174;11.562;2023-09-12T08:18:54;27.80;84.80
27803;DHT22;15182;48.174;11.562;2023-09-12T08:21:21;27.80;84.30
27803;DHT22;15182;48.174;11.562;2023-09-12T08:23:49;27.90;83.90
27803;DHT22;15182;48.174;11.562;2023-09-12T08:26:17;27.90;83.70
27803;DHT22;15182;48.174;11.562;2023-09-12T08:28:46;28.00;83.20
27803;DHT22;15182;48.174;11.562;2023-09-12T08:31:14;28.10;82.90
27803;DHT22;15182;48.174;11.562;2023-09-12T08:33:42;28.20;82.60
27803;DHT22;15182;48.174;11.562;2023-09-12T08:36:10;28.20;82.60
27803;DHT22;15182;48.174;11.562;2023-09-12T08:38:37;28.20;82.70
27803;DHT22;15182;48.174;11.562;2023-09-12T08:41:06;28.30;82.20
27803;DHT22;15182;48.174;11.562;2023-09-12T08:43:34;28.30;81.90
27803;DHT22;15182;48.174;11.562;2023-09-12T08:46:05;28.30;82.00
27803;DHT22;15182;48.174;11.562;2023-09-12T08:48:34;28.40;82.30
27803;DHT22;15182;48.174;11.562;2023-09-12T08:51:04;28.40;82.00
27803;DHT22;15182;48.174;11.562;2023-09-12T08:53:33;28.50;82.10
27803;DHT22;15182;48.174;11.562;2023-09-12T08:56:02;28.50;82.30
27803;DHT22;15182;48.174;11.562;2023-09-12T08:58:31;28.50;81.30
27803;DHT22;15182;48.174;11.562;2023-09-12T09:01:00;28.60;81.30
27803;DHT22;15182;48.174;11.562;2023-09-12T09:03:30;28.60;81.40
27803;DHT22;15182;48.174;11.562;2023-09-12T09:05:58;28.70;81.80
27803;DHT22;15182;48.174;11.562;2023-09-12T09:08:28;28.70;81.60
27803;DHT22;15182;48.174;11.562;2023-09-12T09:10:58;28.80;81.80
27803;DHT22;15182;48.174;11.562;2023-09-12T09:13:28;28.90;81.70
27803;DHT22;15182;48.174;11.562;2023-09-12T09:16:11;28.90;80.80
27803;DHT22;15182;48.174;11.562;2023-09-12T09:18:55;29.00;80.40
27803;DHT22;15182;48.174;11.562;2023-09-12T09:21:25;29.00;80.50
27803;DHT22;15182;48.174;11.562;2023-09-12T09:24:00;29.10;80.60
27803;DHT22;15182;48.174;11.562;2023-09-12T09:26:42;29.20;80.50
27803;DHT22;15182;48.174;11.562;2023-09-12T09:29:13;29.20;80.40
27803;DHT22;15182;48.174;11.562;2023-09-12T09:31:43;29.30;79.80
27803;DHT22;15182;48.174;11.562;2023-09-12T09:34:14;29.40;78.90
27803;DHT22;15182;48.174;11.562;2023-09-12T09:36:43;29.40;78.60
27803;DHT22;15182;48.174;11.562;2023-09-12T09:39:12;29.50;78.50
27803;DHT22;15182;48.174;11.562;2023-09-12T09:41:41;29.50;77.80
27803;DHT22;15182;48.174;11.562;2023-09-12T09:44:08;29.70;77.70
27803;DHT22;15182;48.174;11.562;2023-09-12T09:46:37;29.70;77.20
27803;DHT22;15182;48.174;11.562;2023-09-12T09:49:05;29.80;77.40
27803;DHT22;15182;48.174;11.562;2023-09-12T09:51:40;29.90;77.50
27803;DHT22;15182;48.174;11.562;2023-09-12T09:54:09;30.00;76.00
27803;DHT22;15182;48.174;11.562;2023-09-12T09:56:45;30.10;76.00
27803;DHT22;15182;48.174;11.562;2023-09-12T09:59:14;30.20;75.10
27803;DHT22;15182;48.174;11.562;2023-09-12T10:01:44;30.30;75.60
27803;DHT22;15182;48.174;11.562;2023-09-12T10:04:15;30.40;75.70
27803;DHT22;15182;48.174;11.562;2023-09-12T10:06:46;30.40;75.50
27803;DHT22;15182;48.174;11.562;2023-09-12T10:09:14;30.50;75.10
27803;DHT22;15182;48.174;11.562;2023-09-12T10:11:44;30.60;74.40
27803;DHT22;15182;48.174;11.562;2023-09-12T10:14:15;30.60;75.80
27803;DHT22;15182;48.174;11.562;2023-09-12T10:16:47;30.70;73.80
27803;DHT22;15182;48.174;11.562;2023-09-12T10:19:19;30.70;73.60
27803;DHT22;15182;48.174;11.562;2023-09-12T10:22:01;30.80;73.40
27803;DHT22;15182;48.174;11.562;2023-09-12T10:24:31;30.90;73.20
27803;DHT22;15182;48.174;11.562;2023-09-12T10:27:01;31.00;73.70
27803;DHT22;15182;48.174;11.562;2023-09-12T10:29:31;31.00;74.50
27803;DHT22;15182;48.174;11.562;2023-09-12T10:31:59;31.20;73.90
27803;DHT22;15182;48.174;11.562;2023-09-12T10:34:27;31.30;73.60
27803;DHT22;15182;48.174;11.562;2023-09-12T10:36:59;31.40;73.40
27803;DHT22;15182;48.174;11.562;2023-09-12T10:39:28;31.50;71.80
27803;DHT22;15182;48.174;11.562;2023-09-12T10:41:57;31.60;71.90
27803;DHT22;15182;48.174;11.562;2023-09-12T10:44:26;31.70;71.70
27803;DHT22;15182;48.174;11.562;2023-09-12T10:46:55;31.80;71.70
27803;DHT22;15182;48.174;11.562;2023-09-12T10:49:24;31.80;71.40
27803;DHT22;15182;48.174;11.562;2023-09-12T10:51:53;31.90;71.20
27803;DHT22;15182;48.174;11.562;2023-09-12T10:54:25;31.90;69.90
27803;DHT22;15182;48.174;11.562;2023-09-12T10:57:03;32.00;69.40
27803;DHT22;15182;48.174;11.562;2023-09-12T10:59:31;32.10;69.60
27803;DHT22;15182;48.174;11.562;2023-09-12T11:02:27;32.10;69.80
27803;DHT22;15182;48.174;11.562;2023-09-12T11:04:55;32.20;70.20
27803;DHT22;15182;48.174;11.562;2023-09-12T11:07:43;32.30;70.80
27803;DHT22;15182;48.174;11.562;2023-09-12T11:10:18;32.40;68.80
27803;DHT22;15182;48.174;11.562;2023-09-12T11:12:47;32.60;69.60
27803;DHT22;15182;48.174;11.562;2023-09-12T11:15:16;32.80;69.80
27803;DHT22;15182;48.174;11.562;2023-09-12T11:17:45;32.90;68.60
27803;DHT22;15182;48.174;11.562;2023-09-12T11:20:14;33.00;68.00
27803;DHT22;15182;48.174;11.562;2023-09-12T11:22:44;33.10;69.00
27803;DHT22;15182;48.174;11.562;2023-09-12T11:25:19;33.30;68.10
27803;DHT22;15182;48.174;11.562;2023-09-12T11:28:03;33.30;66.40
27803;DHT22;15182;48.174;11.562;2023-09-12T11:30:32;33.50;66.30
27803;DHT22;15182;48.174;11.562;2023-09-12T11:33:04;33.50;65.50
27803;DHT22;15182;48.174;11.562;2023-09-12T11:35:37;33.60;65.30
27803;DHT22;15182;48.174;11.562;2023-09-12T11:38:10;33.60;65.50
27803;DHT22;15182;48.174;11.562;2023-09-12T11:40:44;33.60;66.20
27803;DHT22;15182;48.174;11.562;2023-09-12T11:43:23;33.60;66.60
27803;DHT22;15182;48.174;11.562;2023-09-12T11:45:52;33.70;65.90
27803;DHT22;15182;48.174;11.562;2023-09-12T11:48:20;33.90;66.20
27803;DHT22;15182;48.174;11.562;2023-09-12T11:50:53;33.90;65.00
27803;DHT22;15182;48.174;11.562;2023-09-12T11:53:23;34.00;63.10
27803;DHT22;15182;48.174;11.562;2023-09-12T11:55:55;34.10;64.30
27803;DHT22;15182;48.174;11.562;2023-09-12T11:58:25;34.00;64.30
27803;DHT22;15182;48.174;11.562;2023-09-12T12:00:56;34.00;64.40
27803;DHT22;15182;48.174;11.562;2023-09-12T12:03:26;33.90;64.20
27803;DHT22;15182;48.174;11.562;2023-09-12T12:05:55;33.90;64.70
27803;DHT22;15182;48.174;11.562;2023-09-12T12:08:23;33.80;63.40
27803;DHT22;15182;48.174;11.562;2023-09-12T12:10:53;33.80;63.30
27803;DHT22;15182;48.174;11.562;2023-09-12T12:13:22;33.80;62.60
27803;DHT22;15182;48.174;11.562;2023-09-12T12:15:50;33.80;62.60
27803;DHT22;15182;48.174;11.562;2023-09-12T12:18:18;33.80;63.00
27803;DHT22;15182;48.174;11.562;2023-09-12T12:20:46;33.90;63.10
27803;DHT22;15182;48.174;11.562;2023-09-12T12:23:14;33.90;63.70
27803;DHT22;15182;48.174;11.562;2023-09-12T12:25:42;34.10;62.90
27803;DHT22;15182;48.174;11.562;2023-09-12T12:28:11;34.20;62.20
27803;DHT22;15182;48.174;11.562;2023-09-12T12:30:39;34.20;61.90
27803;DHT22;15182;48.174;11.562;2023-09-12T12:33:08;34.30;61.80
27803;DHT22;15182;48.174;11.562;2023-09-12T12:35:36;34.50;60.90
27803;DHT22;15182;48.174;11.562;2023-09-12T12:38:04;34.50;60.50
27803;DHT22;15182;48.174;11.562;2023-09-12T12:40:36;34.70;61.00
27803;DHT22;15182;48.174;11.562;2023-09-12T12:43:05;34.80;61.30
27803;DHT22;15182;48.174;11.562;2023-09-12T12:45:34;34.90;60.70
27803;DHT22;15182;48.174;11.562;2023-09-12T12:48:04;35.00;60.00
27803;DHT22;15182;48.174;11.562;2023-09-12T12:50:35;35.10;60.00
27803;DHT22;15182;48.174;11.562;2023-09-12T12:53:03;35.20;59.40
27803;DHT22;15182;48.174;11.562;2023-09-12T12:55:31;35.20;60.60
27803;DHT22;15182;48.174;11.562;2023-09-12T12:58:03;35.30;60.00
27803;DHT22;15182;48.174;11.562;2023-09-12T13:00:31;35.30;59.30
27803;DHT22;15182;48.174;11.562;2023-09-12T13:03:00;35.30;58.80
27803;DHT22;15182;48.174;11.562;2023-09-12T13:05:30;35.30;59.80
27803;DHT22;15182;48.174;11.562;2023-09-12T13:07:58;35.30;59.20
27803;DHT22;15182;48.174;11.562;2023-09-12T13:10:26;35.30;59.10
27803;DHT22;15182;48.174;11.562;2023-09-12T13:12:54;35.30;59.10
27803;DHT22;15182;48.174;11.562;2023-09-12T13:15:22;35.30;59.00
27803;DHT22;15182;48.174;11.562;2023-09-12T13:17:49;35.40;59.10
27803;DHT22;15182;48.174;11.562;2023-09-12T13:20:18;35.30;58.50
27803;DHT22;15182;48.174;11.562;2023-09-12T13:22:46;35.30;58.70
27803;DHT22;15182;48.174;11.562;2023-09-12T13:25:14;35.30;58.60
27803;DHT22;15182;48.174;11.562;2023-09-12T13:27:42;35.30;58.40
27803;DHT22;15182;48.174;11.562;2023-09-12T13:30:10;35.30;58.50
27803;DHT22;15182;48.174;11.562;2023-09-12T13:32:39;35.30;57.90
27803;DHT22;15182;48.174;11.562;2023-09-12T13:35:06;35.30;57.70
27803;DHT22;15182;48.174;11.562;2023-09-12T13:37:36;35.20;57.80
27803;DHT22;15182;48.174;11.562;2023-09-12T13:40:04;35.20;57.60
27803;DHT22;15182;48.174;11.562;2023-09-12T13:42:35;35.20;57.50
27803;DHT22;15182;48.174;11.562;2023-09-12T13:45:03;35.20;57.90
27803;DHT22;15182;48.174;11.562;2023-09-12T13:47:32;35.20;57.60
27803;DHT22;15182;48.174;11.562;2023-09-12T13:50:00;35.10;57.00
27803;DHT22;15182;48.174;11.562;2023-09-12T13:52:27;35.10;57.20
27803;DHT22;15182;48.174;11.562;2023-09-12T13:54:56;35.10;57.10
27803;DHT22;15182;48.174;11.562;2023-09-12T13:57:24;35.10;57.40
27803;DHT22;15182;48.174;11.562;2023-09-12T13:59:52;35.10;57.60
27803;DHT22;15182;48.174;11.562;2023-09-12T14:02:20;35.00;57.90
27803;DHT22;15182;48.174;11.562;2023-09-12T14:04:48;35.00;57.80
27803;DHT22;15182;48.174;11.562;2023-09-12T14:07:15;35.00;57.60
27803;DHT22;15182;48.174;11.562;2023-09-12T14:09:43;34.90;58.90
27803;DHT22;15182;48.174;11.562;2023-09-12T14:12:12;34.90;58.40
27803;DHT22;15182;48.174;11.562;2023-09-12T14:14:40;34.90;58.50
27803;DHT22;15182;48.174;11.562;2023-09-12T14:17:08;34.90;58.70
27803;DHT22;15182;48.174;11.562;2023-09-12T14:19:35;34.80;58.90
27803;DHT22;15182;48.174;11.562;2023-09-12T14:22:04;34.80;59.20
27803;DHT22;15182;48.174;11.562;2023-09-12T14:24:31;34.70;59.20
27803;DHT22;15182;48.174;11.562;2023-09-12T14:26:59;34.60;59.30
27803;DHT22;15182;48.174;11.562;2023-09-12T14:29:28;34.50;59.40
27803;DHT22;15182;48.174;11.562;2023-09-12T14:31:56;34.40;59.80
27803;DHT22;15182;48.174;11.562;2023-09-12T14:34:24;34.40;59.70
27803;DHT22;15182;48.174;11.562;2023-09-12T14:36:53;34.20;59.60
27803;DHT22;15182;48.174;11.562;2023-09-12T14:39:22;34.10;59.40
27803;DHT22;15182;48.174;11.562;2023-09-12T14:41:50;34.00;59.80
27803;DHT22;15182;48.174;11.562;2023-09-12T14:44:20;33.90;60.00
27803;DHT22;15182;48.174;11.562;2023-09-12T14:46:50;33.80;60.40
27803;DHT22;15182;48.174;11.562;2023-09-12T14:49:18;33.70;60.10
27803;DHT22;15182;48.174;11.562;2023-09-12T14:51:46;33.60;60.50
27803;DHT22;15182;48.174;11.562;2023-09-12T14:54:13;33.50;61.60
27803;DHT22;15182;48.174;11.562;2023-09-12T14:56:41;33.50;60.90
27803;DHT22;15182;48.174;11.562;2023-09-12T14:59:09;33.40;62.00
27803;DHT22;15182;48.174;11.562;2023-09-12T15:01:37;33.30;61.20
27803;DHT22;15182;48.174;11.562;2023-09-12T15:04:06;33.30;61.40
27803;DHT22;15182;48.174;11.562;2023-09-12T15:06:34;33.20;62.00
27803;DHT22;15182;48.174;11.562;2023-09-12T15:09:02;33.10;62.00
27803;DHT22;15182;48.174;11.562;2023-09-12T15:11:29;33.10;62.00
27803;DHT22;15182;48.174;11.562;2023-09-12T15:13:58;33.00;62.40
27803;DHT22;15182;48.174;11.562;2023-09-12T15:16:26;33.00;62.40
27803;DHT22;15182;48.174;11.562;2023-09-12T15:18:57;33.00;63.60
27803;DHT22;15182;48.174;11.562;2023-09-12T15:21:26;32.90;62.40
27803;DHT22;15182;48.174;11.562;2023-09-12T15:23:54;32.90;63.60
27803;DHT22;15182;48.174;11.562;2023-09-12T15:26:22;32.80;62.80
27803;DHT22;15182;48.174;11.562;2023-09-12T15:28:50;32.80;62.50